Beacon, New York
Current Conditions -  °F | °C
As of 7:45 PM on Sunday 23 Nov 2014 (Local Time) from KSWF Reporting Station
Scattered Clouds Scattered Clouds  
Wind Chill: 46°   Ceiling: Unl
Heat Index: 48°   Visibility: 10mi
Dew Point: 28°   Wind: 6mph
Humidity: 46%   Direction: NA
Pressure: 30.09"   Gusts: NA
Location:  41.5°N, 73.97°W
Report Text: KSWF 240045Z VRB05KT 10SM SCT100 09/M02 A3009
Loading
Personal Weather Stations






























Interactive Weather Map New forecast layout! Learn more

10-Day Weather Forecast

Advertisements
Track Severe Weather on mobile